createdAt,value
2023-03-07T00:01:01.450Z,1.7
2023-03-07T00:06:37.816Z,1.8
2023-03-07T00:12:03.125Z,1.8
2023-03-07T00:17:25.290Z,1.7
2023-03-07T00:23:03.277Z,1.6
2023-03-07T00:28:43.686Z,1.4
2023-03-07T00:34:13.695Z,1.2
2023-03-07T00:39:56.604Z,0.9
2023-03-07T00:45:17.522Z,0.8
2023-03-07T00:50:38.495Z,1
2023-03-07T00:56:30.256Z,0.9
2023-03-07T01:02:01.107Z,0.9
2023-03-07T01:07:18.767Z,0.9
2023-03-07T01:12:57.883Z,1.1
2023-03-07T01:18:40.923Z,1.2
2023-03-07T01:24:15.128Z,0.8
2023-03-07T01:29:27.776Z,0.9
2023-03-07T01:35:25.716Z,0.9
2023-03-07T01:40:51.872Z,0.6
2023-03-07T01:46:28.280Z,0.7
2023-03-07T01:51:50.309Z,0.9
2023-03-07T01:57:18.996Z,0.6
2023-03-07T02:02:56.821Z,0.6
2023-03-07T02:08:27.680Z,0.5
2023-03-07T02:13:52.765Z,0.2
2023-03-07T02:19:27.802Z,0.4
2023-03-07T02:24:58.327Z,0.5
2023-03-07T02:30:49.641Z,0.5
2023-03-07T02:36:19.953Z,0.3
2023-03-07T02:41:31.560Z,0.4
2023-03-07T02:47:20.595Z,0.7
2023-03-07T02:52:39.114Z,0.8
2023-03-07T02:58:35.021Z,0.6
2023-03-07T03:04:04.082Z,0.4
2023-03-07T03:09:19.414Z,0.3
2023-03-07T03:14:50.609Z,0.2
2023-03-07T03:20:27.570Z,0.2
2023-03-07T03:25:54.333Z,0.4
2023-03-07T03:31:27.878Z,0.4
2023-03-07T03:37:08.092Z,0.5
2023-03-07T03:42:45.516Z,0.6
2023-03-07T03:48:26.410Z,0.6
2023-03-07T03:53:51.040Z,0.5
2023-03-07T03:59:27.980Z,0.7
2023-03-07T04:05:03.862Z,0.6
2023-03-07T04:10:37.015Z,0.5
2023-03-07T04:15:48.604Z,0.3
2023-03-07T04:21:20.956Z,0.3
2023-03-07T04:27:15.391Z,0.4
2023-03-07T04:32:53.149Z,0.5
2023-03-07T04:38:20.396Z,0.7
2023-03-07T04:43:50.477Z,0.8
2023-03-07T04:49:08.086Z,0.7
2023-03-07T04:54:52.599Z,0.7
2023-03-07T05:00:29.368Z,0.7
2023-03-07T05:06:06.890Z,0.7
2023-03-07T05:11:36.120Z,0.5
2023-03-07T05:17:05.632Z,0.7
2023-03-07T05:22:28.738Z,0.8
2023-03-07T05:28:09.877Z,0.9
2023-03-07T05:33:54.737Z,0.9
2023-03-07T05:39:25.344Z,0.6
2023-03-07T05:44:59.750Z,0.6
2023-03-07T05:50:12.801Z,0.6
2023-03-07T05:55:53.198Z,0.7
2023-03-07T06:01:32.119Z,0.6
2023-03-07T06:07:04.090Z,0.6
2023-03-07T06:12:30.720Z,0.7
2023-03-07T06:18:10.085Z,0.7
2023-03-07T06:23:26.702Z,0.6
2023-03-07T06:29:20.879Z,0.7
2023-03-07T06:34:38.675Z,0.8
2023-03-07T06:40:15.655Z,1
2023-03-07T06:45:57.317Z,1.2
2023-03-07T06:51:22.824Z,1.1
2023-03-07T06:57:13.989Z,1.2
2023-03-07T07:02:24.130Z,1.2
2023-03-07T07:08:12.712Z,1.3
2023-03-07T07:13:33.884Z,1.5
2023-03-07T07:19:12.142Z,1.4
2023-03-07T07:24:50.018Z,1.3
2023-03-07T07:30:17.703Z,1.4
2023-03-07T07:36:03.798Z,1.4
2023-03-07T07:41:18.167Z,1.5
2023-03-07T07:46:43.613Z,2
2023-03-07T07:52:33.339Z,3.3
2023-03-07T07:57:57.171Z,4.4
2023-03-07T08:03:45.779Z,3.2
2023-03-07T08:08:56.522Z,3.5
2023-03-07T08:14:48.006Z,3.3
2023-03-07T08:20:05.160Z,3.6
2023-03-07T08:25:58.295Z,4.2
2023-03-07T08:31:22.666Z,4.8
2023-03-07T08:36:46.978Z,4.4
2023-03-07T08:42:24.909Z,5
2023-03-07T08:48:24.028Z,5.2
2023-03-07T08:53:52.084Z,5.5
2023-03-07T08:59:06.337Z,5.2
2023-03-07T09:05:06.005Z,4.8
2023-03-07T09:10:29.681Z,4.8
2023-03-07T09:16:02.768Z,5.2
2023-03-07T09:21:43.894Z,5.3
2023-03-07T09:27:02.711Z,5.6
2023-03-07T09:32:41.600Z,4.6
2023-03-07T09:38:25.781Z,4.7
2023-03-07T09:43:52.081Z,5
2023-03-07T09:49:44.244Z,5.6
2023-03-07T09:54:57.283Z,5.7
2023-03-07T10:00:38.397Z,6.4
2023-03-07T10:06:29.549Z,5.9
2023-03-07T10:11:44.576Z,7
2023-03-07T10:17:17.923Z,7.4
2023-03-07T10:23:14.703Z,5.9
2023-03-07T10:28:46.507Z,6.3
2023-03-07T10:34:27.214Z,6.7
2023-03-07T10:39:41.665Z,6.6
2023-03-07T10:45:20.690Z,6.1
2023-03-07T10:51:03.930Z,6.2
2023-03-07T10:56:41.998Z,7.2
2023-03-07T11:02:01.176Z,6.7
2023-03-07T11:07:54.053Z,7.5
2023-03-07T11:13:07.797Z,6.6
2023-03-07T11:18:45.784Z,7.2
2023-03-07T11:24:40.633Z,7.3
2023-03-07T11:30:17.503Z,7.1
2023-03-07T11:35:48.548Z,6.9
2023-03-07T11:41:29.174Z,7.5
2023-03-07T11:46:41.745Z,6.9
2023-03-07T11:52:24.004Z,7.3
2023-03-07T11:58:12.968Z,7.3
2023-03-07T12:03:41.599Z,7.5
2023-03-07T12:09:03.083Z,7.1
2023-03-07T12:14:47.478Z,7.4
2023-03-07T12:20:33.635Z,7.9
2023-03-07T12:26:04.447Z,7.6
2023-03-07T12:31:45.254Z,7.7
2023-03-07T12:37:09.403Z,7.6
2023-03-07T12:42:39.185Z,7.7
2023-03-07T12:48:23.087Z,7.6
2023-03-07T12:54:01.804Z,7.7
2023-03-07T12:59:44.246Z,7.6
2023-03-07T13:05:03.193Z,8
2023-03-07T13:10:55.337Z,7.6
2023-03-07T13:16:05.950Z,7.5
2023-03-07T13:21:41.401Z,7.8
2023-03-07T13:27:18.716Z,8
2023-03-07T13:33:12.585Z,8
2023-03-07T13:38:30.704Z,8.6
2023-03-07T13:44:18.879Z,8.4
2023-03-07T13:49:42.974Z,8.1
2023-03-07T13:55:17.226Z,7.6
2023-03-07T14:00:55.492Z,7.8
2023-03-07T14:06:46.983Z,8.3
2023-03-07T14:12:03.441Z,8.7
2023-03-07T14:17:40.200Z,8.4
2023-03-07T14:23:28.771Z,8.2
2023-03-07T14:28:38.932Z,8.1
2023-03-07T14:34:30.405Z,8.1
2023-03-07T14:40:04.601Z,8.2
2023-03-07T14:45:35.831Z,7.9
2023-03-07T14:51:03.603Z,8
2023-03-07T14:56:32.871Z,8
2023-03-07T15:02:18.309Z,8.2
2023-03-07T15:08:05.097Z,8.1
2023-03-07T15:13:22.617Z,8
2023-03-07T15:18:57.791Z,8
2023-03-07T15:24:33.121Z,8.2
2023-03-07T15:30:03.226Z,7.9
2023-03-07T15:35:32.175Z,7.3
2023-03-07T15:41:14.020Z,7.8
2023-03-07T15:46:44.182Z,8.1
2023-03-07T15:52:36.200Z,8.1
2023-03-07T15:58:13.651Z,8
2023-03-07T16:03:32.729Z,8.1
2023-03-07T16:09:06.632Z,7.9
2023-03-07T16:14:48.292Z,8
2023-03-07T16:20:12.603Z,7.8
2023-03-07T16:25:47.736Z,7.6
2023-03-07T16:31:39.193Z,7.7
2023-03-07T16:37:10.720Z,7.5
2023-03-07T16:42:47.057Z,7.5
2023-03-07T16:48:01.308Z,7.5
2023-03-07T16:53:40.838Z,7.4
2023-03-07T16:59:32.146Z,7.3
2023-03-07T17:05:01.245Z,7.2
2023-03-07T17:10:31.390Z,7
2023-03-07T17:15:56.043Z,6.9
2023-03-07T17:21:36.441Z,6.8
2023-03-07T17:27:23.847Z,6.5
2023-03-07T17:32:37.854Z,6.4
2023-03-07T17:38:17.216Z,6.3
2023-03-07T17:44:02.544Z,6.2
2023-03-07T17:49:25.682Z,6.2
2023-03-07T17:55:17.531Z,6.1
2023-03-07T18:00:53.578Z,6.1
2023-03-07T18:06:27.044Z,5.9
2023-03-07T18:11:36.984Z,5.8
2023-03-07T18:17:26.068Z,5.7
2023-03-07T18:22:43.812Z,5.6
2023-03-07T18:28:25.966Z,5.6
2023-03-07T18:34:15.469Z,5.5
2023-03-07T18:39:50.178Z,5.4
2023-03-07T18:45:11.323Z,5.4
2023-03-07T18:50:47.098Z,5.4
2023-03-07T18:56:17.139Z,5.5
2023-03-07T19:02:03.897Z,5.5
2023-03-07T19:07:20.780Z,5.4
2023-03-07T19:13:01.096Z,5.4
2023-03-07T19:18:44.183Z,5.4
2023-03-07T19:24:08.017Z,5.4
2023-03-07T19:29:40.944Z,5.4
2023-03-07T19:35:25.529Z,5.4
2023-03-07T19:40:55.622Z,5.3
2023-03-07T19:46:36.043Z,5.3
2023-03-07T19:52:04.826Z,5.3
2023-03-07T19:57:23.303Z,5.2
2023-03-07T20:02:53.819Z,5.2
2023-03-07T20:08:35.182Z,5.2
2023-03-07T20:14:10.357Z,5.2
2023-03-07T20:19:47.299Z,5.3
2023-03-07T20:25:24.495Z,5.3
2023-03-07T20:30:57.102Z,5.3
2023-03-07T20:36:28.289Z,5.3
2023-03-07T20:42:14.346Z,5.2
2023-03-07T20:47:28.471Z,5.2
2023-03-07T20:53:13.500Z,5.2
2023-03-07T20:58:40.401Z,5.2
2023-03-07T21:04:35.666Z,5.3
2023-03-07T21:10:10.110Z,5.1
2023-03-07T21:15:33.381Z,5.1
2023-03-07T21:21:18.517Z,5.1
2023-03-07T21:26:46.465Z,5.3
2023-03-07T21:31:58.814Z,5.2
2023-03-07T21:37:59.190Z,5.3
2023-03-07T21:43:30.708Z,5.2
2023-03-07T21:48:43.766Z,5.3
2023-03-07T21:54:28.539Z,5.3
2023-03-07T22:00:03.279Z,5.3
2023-03-07T22:05:41.273Z,5.3
2023-03-07T22:11:02.304Z,5.3
2023-03-07T22:16:56.042Z,5.2
2023-03-07T22:22:16.639Z,5.2
2023-03-07T22:27:54.846Z,5.2
2023-03-07T22:33:22.954Z,5.3
2023-03-07T22:39:02.731Z,5.3
2023-03-07T22:44:40.129Z,5.3
2023-03-07T22:50:05.436Z,5.3
2023-03-07T22:55:38.613Z,5.2
2023-03-07T23:01:11.145Z,5.1
2023-03-07T23:06:57.218Z,5
2023-03-07T23:12:38.382Z,4.8
2023-03-07T23:18:11.999Z,4.7
2023-03-07T23:23:39.667Z,4.7
2023-03-07T23:28:59.568Z,4.6
2023-03-07T23:34:53.631Z,4.6
2023-03-07T23:40:03.527Z,4.6
2023-03-07T23:45:36.581Z,4.6
2023-03-07T23:51:09.019Z,4.7
2023-03-07T23:56:56.333Z,4.7
